Time;durP1;ratioP1;P1;durP2;ratioP2;P2;SDS_P1;SDS_P2;PMS_P1;PMS_P2;Temp;Humidity;BMP_temperature;BMP_pressure;BME280_temperature;BME280_humidity;BME280_pressure;Samples;Min_cycle;Max_cycle;Signal;HPM_P1;HPM_P2
2024/03/19 00:01:16;;;;;;;58.43;36.27;;;;;;;;;;12952837;23;20369;-90
2024/03/19 00:06:18;;;;;;;61.78;36.75;;;;;;;;;;12931218;23;20384;-91
2024/03/19 00:11:22;;;;;;;55.80;34.42;;;;;;;;;;12922201;23;20376;-91
2024/03/19 00:16:24;;;;;;;54.05;32.72;;;;;;;;;;12923086;23;20361;-90
2024/03/19 00:21:26;;;;;;;54.77;33.97;;;;;;;;;;12923698;23;20365;-91
2024/03/19 00:26:30;;;;;;;60.17;35.88;;;;;;;;;;12921126;23;21127;-91
2024/03/19 00:31:32;;;;;;;67.47;37.97;;;;;;;;;;12922735;23;20368;-91
2024/03/19 00:36:35;;;;;;;72.80;39.28;;;;;;;;;;12922397;23;20423;-90
2024/03/19 00:41:38;;;;;;;62.67;33.57;;;;;;;;;;12922591;23;20401;-90
2024/03/19 00:46:41;;;;;;;56.28;33.08;;;;;;;;;;12921595;23;20792;-91
2024/03/19 00:51:43;;;;;;;63.97;35.47;;;;;;;;;;12921938;23;20364;-91
2024/03/19 00:56:46;;;;;;;61.00;35.20;;;;;;;;;;12920310;23;20475;-90
2024/03/19 01:01:49;;;;;;;60.03;35.88;;;;;;;;;;12921586;23;20438;-90
2024/03/19 01:06:51;;;;;;;58.03;35.37;;;;;;;;;;12921797;23;20392;-90
2024/03/19 01:11:55;;;;;;;58.45;33.08;;;;;;;;;;12942659;23;20364;-91
2024/03/19 01:16:57;;;;;;;54.50;33.20;;;;;;;;;;12922691;23;20376;-90
2024/03/19 01:22:00;;;;;;;64.10;32.78;;;;;;;;;;12943264;23;20561;-90
2024/03/19 01:27:04;;;;;;;60.33;32.40;;;;;;;;;;12921830;23;20449;-91
2024/03/19 01:32:07;;;;;;;56.43;31.90;;;;;;;;;;12920802;23;20365;-90
2024/03/19 01:37:09;;;;;;;62.20;32.00;;;;;;;;;;12922028;23;20349;-90
2024/03/19 01:42:13;;;;;;;63.30;29.60;;;;;;;;;;12918277;22;20457;-90
2024/03/19 01:47:15;;;;;;;62.17;29.42;;;;;;;;;;12915480;22;20439;-91
2024/03/19 01:52:17;;;;;;;75.07;31.33;;;;;;;;;;12921263;23;20422;-90
2024/03/19 01:57:21;;;;;;;56.28;28.67;;;;;;;;;;12920744;23;20424;-91
2024/03/19 02:02:31;;;;;;;46.83;26.20;;;;;;;;;;12920621;23;20898;-91
2024/03/19 02:07:34;;;;;;;49.55;26.45;;;;;;;;;;12921010;23;20388;-90
2024/03/19 02:12:38;;;;;;;47.20;26.60;;;;;;;;;;12920928;23;20442;-91
2024/03/19 02:17:40;;;;;;;47.50;28.93;;;;;;;;;;12928212;23;20368;-91
2024/03/19 02:22:46;;;;;;;46.97;29.07;;;;;;;;;;12928360;23;20415;-90
2024/03/19 02:27:49;;;;;;;54.88;30.27;;;;;;;;;;12927949;23;20376;-91
2024/03/19 02:32:51;;;;;;;50.05;29.58;;;;;;;;;;12927291;23;20368;-91
2024/03/19 02:37:54;;;;;;;50.45;29.63;;;;;;;;;;12928199;23;20431;-91
2024/03/19 02:42:56;;;;;;;49.47;29.45;;;;;;;;;;12927642;23;20418;-90
2024/03/19 02:47:59;;;;;;;46.50;29.20;;;;;;;;;;12926635;23;20411;-90
2024/03/19 02:53:02;;;;;;;45.00;28.05;;;;;;;;;;12927621;23;20372;-90
2024/03/19 02:58:06;;;;;;;44.28;27.80;;;;;;;;;;12926925;23;20406;-90
2024/03/19 03:03:09;;;;;;;47.70;26.75;;;;;;;;;;12927239;23;20736;-90
2024/03/19 03:08:12;;;;;;;45.58;27.13;;;;;;;;;;12927337;23;20447;-90
2024/03/19 03:13:14;;;;;;;44.78;29.10;;;;;;;;;;12926407;23;20376;-90
2024/03/19 03:18:17;;;;;;;44.33;28.00;;;;;;;;;;12927062;23;20368;-91
2024/03/19 03:23:20;;;;;;;56.03;29.27;;;;;;;;;;12926772;23;20828;-90
2024/03/19 03:28:22;;;;;;;51.85;28.65;;;;;;;;;;12922856;23;20755;-91
2024/03/19 03:33:26;;;;;;;42.67;27.75;;;;;;;;;;12923932;23;20414;-91
2024/03/19 03:38:29;;;;;;;45.15;27.17;;;;;;;;;;12923695;23;20357;-90
2024/03/19 03:43:31;;;;;;;50.67;26.47;;;;;;;;;;12923000;23;21008;-90
2024/03/19 03:48:34;;;;;;;55.40;28.40;;;;;;;;;;12944885;23;20450;-91
2024/03/19 03:53:37;;;;;;;41.00;25.10;;;;;;;;;;12921983;23;20403;-90
2024/03/19 03:58:39;;;;;;;36.83;24.90;;;;;;;;;;12924733;23;20376;-90
2024/03/19 04:03:41;;;;;;;41.75;25.27;;;;;;;;;;12923126;23;20821;-91
2024/03/19 04:08:45;;;;;;;43.40;24.42;;;;;;;;;;12922655;23;20384;-90
2024/03/19 04:13:47;;;;;;;40.97;24.88;;;;;;;;;;12943965;23;20421;-91
2024/03/19 04:18:49;;;;;;;41.92;24.95;;;;;;;;;;12924063;23;20890;-90
2024/03/19 04:23:53;;;;;;;39.13;22.90;;;;;;;;;;12923150;23;20372;-91
2024/03/19 04:28:55;;;;;;;36.38;22.42;;;;;;;;;;12922976;23;20450;-91
2024/03/19 04:33:57;;;;;;;36.13;23.30;;;;;;;;;;12922409;23;20403;-91
2024/03/19 04:39:02;;;;;;;41.57;22.63;;;;;;;;;;12921505;23;20463;-91
2024/03/19 04:44:05;;;;;;;41.10;22.48;;;;;;;;;;12922588;23;20391;-91
2024/03/19 04:49:07;;;;;;;42.35;23.83;;;;;;;;;;12922394;23;20446;-90
2024/03/19 04:54:11;;;;;;;40.80;23.67;;;;;;;;;;12921739;23;20368;-91
2024/03/19 04:59:13;;;;;;;39.53;22.83;;;;;;;;;;12922149;23;20372;-91
2024/03/19 05:04:15;;;;;;;38.27;23.87;;;;;;;;;;12922892;23;20723;-91
2024/03/19 05:09:19;;;;;;;39.13;24.13;;;;;;;;;;12921169;23;20860;-91
2024/03/19 05:14:21;;;;;;;40.38;23.80;;;;;;;;;;12921906;23;20372;-91
2024/03/19 05:19:23;;;;;;;36.97;23.03;;;;;;;;;;12922020;23;20398;-92
2024/03/19 05:24:27;;;;;;;36.20;23.63;;;;;;;;;;12921436;23;20376;-91
2024/03/19 05:29:31;;;;;;;39.13;24.13;;;;;;;;;;12921528;23;20422;-90
2024/03/19 05:34:33;;;;;;;41.08;25.52;;;;;;;;;;12920476;23;20364;-89
2024/03/19 05:39:38;;;;;;;37.97;24.80;;;;;;;;;;12920866;23;20418;-91
2024/03/19 05:44:41;;;;;;;40.42;25.25;;;;;;;;;;12921858;23;20372;-91
2024/03/19 05:49:43;;;;;;;40.30;24.33;;;;;;;;;;12920249;23;20922;-91
2024/03/19 05:54:46;;;;;;;39.33;24.37;;;;;;;;;;12942240;23;20399;-91
2024/03/19 05:59:49;;;;;;;41.33;24.23;;;;;;;;;;12921309;23;20493;-91
2024/03/19 06:04:52;;;;;;;36.30;22.67;;;;;;;;;;12920674;23;20418;-91
2024/03/19 06:09:55;;;;;;;38.90;25.13;;;;;;;;;;12919378;23;20395;-91
2024/03/19 06:14:57;;;;;;;34.80;24.95;;;;;;;;;;12919387;23;20368;-91
2024/03/19 06:19:59;;;;;;;43.23;25.23;;;;;;;;;;12920328;23;20744;-91
2024/03/19 06:25:04;;;;;;;38.87;23.90;;;;;;;;;;12941013;23;20418;-91
2024/03/19 06:30:07;;;;;;;36.93;23.10;;;;;;;;;;12920373;23;20921;-91
2024/03/19 06:35:09;;;;;;;44.00;25.25;;;;;;;;;;12919806;23;20364;-90
2024/03/19 06:40:13;;;;;;;38.43;23.73;;;;;;;;;;12919420;23;20364;-92
2024/03/19 06:45:16;;;;;;;40.13;22.67;;;;;;;;;;12917970;23;20377;-81
2024/03/19 06:50:19;;;;;;;38.58;23.20;;;;;;;;;;12910958;23;20804;-91
2024/03/19 06:55:22;;;;;;;41.22;24.17;;;;;;;;;;12913614;23;20368;-91
2024/03/19 07:00:26;;;;;;;86.90;32.97;;;;;;;;;;12908486;23;20376;-91
2024/03/19 07:05:29;;;;;;;71.60;31.70;;;;;;;;;;12916598;23;20418;-91
2024/03/19 07:10:32;;;;;;;55.70;27.20;;;;;;;;;;12918437;23;20442;-91
2024/03/19 07:15:34;;;;;;;48.73;24.77;;;;;;;;;;12927072;23;20402;-90
2024/03/19 07:20:38;;;;;;;37.42;22.52;;;;;;;;;;12921397;23;20376;-90
2024/03/19 07:25:42;;;;;;;34.53;21.37;;;;;;;;;;12918673;23;20780;-91
2024/03/19 07:30:44;;;;;;;37.15;21.17;;;;;;;;;;12920721;23;20403;-91
2024/03/19 07:35:47;;;;;;;33.17;20.35;;;;;;;;;;12921465;23;20403;-90
2024/03/19 07:40:51;;;;;;;33.83;19.88;;;;;;;;;;12921561;23;20368;-90
2024/03/19 07:45:53;;;;;;;33.78;20.92;;;;;;;;;;12921721;23;20369;-90
2024/03/19 07:50:57;;;;;;;32.10;19.75;;;;;;;;;;12916659;23;20368;-91
2024/03/19 07:56:01;;;;;;;35.45;20.75;;;;;;;;;;12920020;23;20438;-89
2024/03/19 08:01:07;;;;;;;30.58;19.42;;;;;;;;;;12920114;23;20387;-90
2024/03/19 08:06:09;;;;;;;34.30;19.97;;;;;;;;;;12920894;23;20360;-90
2024/03/19 08:11:14;;;;;;;31.80;19.87;;;;;;;;;;12919874;23;20376;-91
2024/03/19 08:16:16;;;;;;;31.80;19.95;;;;;;;;;;12940885;23;20551;-90
2024/03/19 08:21:20;;;;;;;34.58;20.02;;;;;;;;;;12919577;23;20376;-90
2024/03/19 08:26:23;;;;;;;35.77;20.20;;;;;;;;;;12916818;23;20957;-90
2024/03/19 08:31:25;;;;;;;33.90;20.37;;;;;;;;;;12919794;23;20376;-90
2024/03/19 08:36:28;;;;;;;37.30;21.17;;;;;;;;;;12919610;23;20368;-90
2024/03/19 08:41:32;;;;;;;36.60;20.60;;;;;;;;;;12919708;23;20373;-89
2024/03/19 08:46:35;;;;;;;43.35;21.63;;;;;;;;;;12917746;23;20828;-90
2024/03/19 08:51:37;;;;;;;45.63;25.98;;;;;;;;;;12917513;23;20369;-90
2024/03/19 08:56:41;;;;;;;39.57;21.80;;;;;;;;;;12915681;23;20736;-90
2024/03/19 09:01:44;;;;;;;44.97;22.40;;;;;;;;;;12939777;23;20364;-88
2024/03/19 09:06:47;;;;;;;40.60;23.55;;;;;;;;;;12914276;23;20434;-90
2024/03/19 09:11:51;;;;;;;41.92;22.65;;;;;;;;;;12917220;23;20434;-90
2024/03/19 09:16:53;;;;;;;46.70;23.63;;;;;;;;;;12917005;23;20417;-91
2024/03/19 09:21:56;;;;;;;45.17;24.73;;;;;;;;;;12915768;23;20689;-90
2024/03/19 09:27:03;;;;;;;50.58;25.60;;;;;;;;;;12929581;23;20402;-90
2024/03/19 09:32:06;;;;;;;46.72;24.67;;;;;;;;;;12908965;22;20384;-91
2024/03/19 09:37:08;;;;;;;48.10;25.10;;;;;;;;;;12902653;23;20438;-90
2024/03/19 09:42:16;;;;;;;48.93;25.27;;;;;;;;;;12909516;23;20403;-90
2024/03/19 09:47:20;;;;;;;46.03;24.65;;;;;;;;;;12912959;23;20697;-90
2024/03/19 09:52:24;;;;;;;42.17;22.67;;;;;;;;;;12933889;23;20372;-90
2024/03/19 09:57:27;;;;;;;48.95;28.40;;;;;;;;;;12917233;23;20841;-91
2024/03/19 10:02:30;;;;;;;41.95;22.88;;;;;;;;;;12938830;23;20368;-90
2024/03/19 10:07:32;;;;;;;46.15;25.55;;;;;;;;;;12916021;23;20442;-90
2024/03/19 10:12:36;;;;;;;55.47;28.58;;;;;;;;;;12915564;23;20422;-90
2024/03/19 10:17:38;;;;;;;43.05;23.13;;;;;;;;;;12917049;23;20381;-91
2024/03/19 10:22:40;;;;;;;48.30;27.17;;;;;;;;;;12916468;23;20701;-90
2024/03/19 10:27:44;;;;;;;45.03;25.23;;;;;;;;;;12917626;23;20751;-90
2024/03/19 10:32:49;;;;;;;44.33;25.52;;;;;;;;;;12918828;23;20368;-89
2024/03/19 10:37:53;;;;;;;48.87;27.20;;;;;;;;;;12920851;23;20688;-90
2024/03/19 10:42:57;;;;;;;46.53;25.33;;;;;;;;;;12920482;23;20376;-91
2024/03/19 10:47:59;;;;;;;42.17;24.00;;;;;;;;;;12942181;23;20380;-90
2024/03/19 10:53:08;;;;;;;42.67;25.63;;;;;;;;;;12918240;23;20422;-88
2024/03/19 10:58:14;;;;;;;43.20;24.80;;;;;;;;;;12919096;23;20403;-90
2024/03/19 11:03:18;;;;;;;43.05;24.40;;;;;;;;;;12919906;23;20368;-90
2024/03/19 11:08:21;;;;;;;40.40;24.33;;;;;;;;;;12920312;23;20506;-90
2024/03/19 11:13:25;;;;;;;38.40;22.10;;;;;;;;;;12920305;23;20435;-90
2024/03/19 11:18:29;;;;;;;38.20;22.98;;;;;;;;;;12920182;23;20829;-91
2024/03/19 11:23:31;;;;;;;38.28;22.92;;;;;;;;;;12942115;23;20410;-90
2024/03/19 11:28:34;;;;;;;34.90;21.67;;;;;;;;;;12917817;23;20388;-91
2024/03/19 11:33:38;;;;;;;47.17;26.70;;;;;;;;;;12923920;23;20402;-91
2024/03/19 11:38:40;;;;;;;40.13;23.77;;;;;;;;;;12920088;23;21134;-90
2024/03/19 11:43:44;;;;;;;38.17;22.23;;;;;;;;;;12919776;23;20458;-90
2024/03/19 11:48:49;;;;;;;38.08;22.90;;;;;;;;;;12912646;23;20415;-90
2024/03/19 11:54:00;;;;;;;38.90;23.20;;;;;;;;;;12916780;23;20357;-91
2024/03/19 11:59:04;;;;;;;40.63;23.17;;;;;;;;;;12937540;23;20422;-91
2024/03/19 12:04:08;;;;;;;40.80;23.70;;;;;;;;;;12915560;23;20418;-90
2024/03/19 12:09:11;;;;;;;37.60;22.58;;;;;;;;;;12916055;23;20427;-91
2024/03/19 12:14:15;;;;;;;40.95;24.35;;;;;;;;;;12905750;22;20456;-91
2024/03/19 12:19:19;;;;;;;33.35;20.25;;;;;;;;;;12906527;22;21119;-90
2024/03/19 12:24:21;;;;;;;36.13;21.58;;;;;;;;;;12901032;22;20384;-91
2024/03/19 12:29:25;;;;;;;37.38;21.63;;;;;;;;;;12885338;23;20442;-92
2024/03/19 12:34:37;;;;;;;36.90;21.60;;;;;;;;;;12885244;23;20368;-92
2024/03/19 12:39:39;;;;;;;36.80;21.52;;;;;;;;;;12884705;22;20415;-91
2024/03/19 12:50:32;;;;;;;35.85;21.13;;;;;;;;;;12899487;22;20383;-92
2024/03/19 12:55:36;;;;;;;37.47;23.00;;;;;;;;;;12842474;23;20382;-92
2024/03/19 13:00:38;;;;;;;35.70;20.60;;;;;;;;;;12834576;23;20412;-91
2024/03/19 13:05:43;;;;;;;34.60;19.65;;;;;;;;;;12854512;23;20382;-91
2024/03/19 13:10:47;;;;;;;34.85;20.08;;;;;;;;;;12878751;23;20916;-91
2024/03/19 13:15:49;;;;;;;34.90;21.58;;;;;;;;;;12852602;22;20369;-87
2024/03/19 13:20:51;;;;;;;35.17;20.35;;;;;;;;;;12846173;23;20440;-91
2024/03/19 13:25:54;;;;;;;32.20;19.50;;;;;;;;;;12866247;23;20398;-90
2024/03/19 13:30:57;;;;;;;37.22;21.67;;;;;;;;;;12847747;23;20386;-91
2024/03/19 13:35:59;;;;;;;36.73;22.67;;;;;;;;;;12851230;23;20440;-90
2024/03/19 13:41:02;;;;;;;33.83;20.50;;;;;;;;;;12850908;23;20374;-86
2024/03/19 13:46:05;;;;;;;32.92;20.35;;;;;;;;;;12850541;23;20448;-91
2024/03/19 13:51:08;;;;;;;34.10;20.13;;;;;;;;;;12865083;23;20392;-90
2024/03/19 13:56:11;;;;;;;31.35;18.55;;;;;;;;;;12919140;23;20369;-90
2024/03/19 14:01:13;;;;;;;35.22;20.98;;;;;;;;;;12919148;23;20372;-91
2024/03/19 14:06:16;;;;;;;34.10;20.00;;;;;;;;;;12918533;23;20361;-91
2024/03/19 14:11:19;;;;;;;30.40;18.58;;;;;;;;;;12918597;23;20384;-91
2024/03/19 14:16:22;;;;;;;29.98;18.50;;;;;;;;;;12918263;23;20403;-90
2024/03/19 14:21:24;;;;;;;30.75;18.30;;;;;;;;;;12917073;23;20749;-90
2024/03/19 14:26:28;;;;;;;30.92;17.83;;;;;;;;;;12921926;23;20481;-90
2024/03/19 14:31:30;;;;;;;33.77;18.57;;;;;;;;;;12907849;23;20440;-90
2024/03/19 14:36:32;;;;;;;34.03;18.38;;;;;;;;;;12912342;23;20372;-90
2024/03/19 14:41:36;;;;;;;30.13;17.23;;;;;;;;;;12884461;23;21136;-90
2024/03/19 14:46:38;;;;;;;32.88;18.80;;;;;;;;;;12912969;23;20764;-89
2024/03/19 14:51:40;;;;;;;34.88;19.38;;;;;;;;;;12910795;23;20383;-90
2024/03/19 14:56:44;;;;;;;34.37;19.50;;;;;;;;;;12913880;23;20364;-90
2024/03/19 15:01:47;;;;;;;35.80;19.37;;;;;;;;;;12907541;23;20365;-89
2024/03/19 15:06:50;;;;;;;34.83;19.43;;;;;;;;;;12906411;23;20360;-89
2024/03/19 15:11:53;;;;;;;37.25;18.65;;;;;;;;;;12908563;23;20384;-89
2024/03/19 15:16:55;;;;;;;35.92;19.33;;;;;;;;;;12908309;23;20430;-89
2024/03/19 15:21:58;;;;;;;42.22;20.98;;;;;;;;;;12908493;23;20376;-90
2024/03/19 15:27:01;;;;;;;40.93;20.63;;;;;;;;;;12915188;23;20438;-90
2024/03/19 15:32:04;;;;;;;37.63;19.90;;;;;;;;;;12910376;23;20443;-89
2024/03/19 15:37:06;;;;;;;41.38;20.98;;;;;;;;;;12910659;23;20372;-89
2024/03/19 15:42:09;;;;;;;45.30;21.27;;;;;;;;;;12906659;23;20712;-89
2024/03/19 15:47:12;;;;;;;41.35;21.08;;;;;;;;;;12911694;23;20430;-90
2024/03/19 15:52:14;;;;;;;44.38;20.95;;;;;;;;;;12910169;23;20759;-89
2024/03/19 15:57:18;;;;;;;40.20;19.70;;;;;;;;;;12915739;23;20399;-89
2024/03/19 16:02:20;;;;;;;43.63;21.45;;;;;;;;;;12913168;22;20461;-90
2024/03/19 16:07:22;;;;;;;45.13;20.38;;;;;;;;;;12911748;22;20434;-89
2024/03/19 16:12:26;;;;;;;40.33;21.10;;;;;;;;;;12910313;22;20388;-90
2024/03/19 16:17:28;;;;;;;40.13;19.73;;;;;;;;;;12906945;22;20942;-89
2024/03/19 16:22:30;;;;;;;40.97;20.75;;;;;;;;;;12907893;22;20380;-90
2024/03/19 16:27:38;;;;;;;41.92;20.50;;;;;;;;;;12900375;22;20721;-90
2024/03/19 16:32:44;;;;;;;40.23;20.37;;;;;;;;;;12896448;22;21134;-91
2024/03/19 16:37:58;;;;;;;41.07;20.33;;;;;;;;;;12928356;23;20956;-87
2024/03/19 16:43:11;;;;;;;38.72;19.52;;;;;;;;;;12905347;23;20372;-89
2024/03/19 16:48:17;;;;;;;38.75;19.20;;;;;;;;;;12911672;22;20596;-89
2024/03/19 16:53:24;;;;;;;41.22;20.30;;;;;;;;;;12904639;22;20388;-89
2024/03/19 16:58:30;;;;;;;36.75;20.23;;;;;;;;;;12905471;22;20376;-88
2024/03/19 17:03:36;;;;;;;39.38;20.17;;;;;;;;;;12909066;22;20392;-89
2024/03/19 17:08:40;;;;;;;37.58;19.55;;;;;;;;;;12918315;22;20407;-88
2024/03/19 17:13:46;;;;;;;38.75;20.20;;;;;;;;;;12910539;22;20380;-89
2024/03/19 17:18:49;;;;;;;41.10;20.35;;;;;;;;;;12907998;22;20384;-90
2024/03/19 17:23:53;;;;;;;38.03;20.50;;;;;;;;;;12908133;22;20442;-87
2024/03/19 17:28:57;;;;;;;39.97;21.30;;;;;;;;;;12924653;22;20376;-88
2024/03/19 17:34:00;;;;;;;37.70;21.25;;;;;;;;;;12908065;22;20377;-89
2024/03/19 17:39:05;;;;;;;38.87;20.10;;;;;;;;;;12912853;22;20426;-90
2024/03/19 17:44:09;;;;;;;37.50;19.75;;;;;;;;;;12932774;22;20414;-88
2024/03/19 17:49:11;;;;;;;42.65;21.48;;;;;;;;;;12909795;23;20442;-89
2024/03/19 17:54:14;;;;;;;39.95;20.67;;;;;;;;;;12909166;22;20411;-90
2024/03/19 17:59:19;;;;;;;49.38;27.17;;;;;;;;;;12911195;22;20380;-88
2024/03/19 18:04:22;;;;;;;43.78;22.55;;;;;;;;;;12912436;22;20415;-89
2024/03/19 18:09:27;;;;;;;40.78;22.02;;;;;;;;;;12907672;22;20449;-89
2024/03/19 18:14:39;;;;;;;44.60;23.15;;;;;;;;;;12910909;22;20384;-89
2024/03/19 18:19:42;;;;;;;43.88;23.90;;;;;;;;;;12911915;22;20376;-89
2024/03/19 18:24:45;;;;;;;42.72;23.48;;;;;;;;;;12924990;22;20430;-88
2024/03/19 18:29:53;;;;;;;45.33;23.70;;;;;;;;;;12911254;22;20384;-87
2024/03/19 18:34:59;;;;;;;41.63;22.98;;;;;;;;;;12910711;23;20365;-89
2024/03/19 18:40:03;;;;;;;45.92;24.73;;;;;;;;;;12920759;22;20446;-88
2024/03/19 18:45:13;;;;;;;43.50;22.65;;;;;;;;;;12909170;22;20373;-89
2024/03/19 18:55:21;;;;;;;49.05;25.52;;;;;;;;;;12910712;23;20384;-89
2024/03/19 19:00:26;;;;;;;45.40;25.23;;;;;;;;;;12913334;22;20713;-90
2024/03/19 19:05:31;;;;;;;48.90;26.77;;;;;;;;;;12914153;22;20380;-88
2024/03/19 19:10:43;;;;;;;46.90;26.17;;;;;;;;;;12917852;22;20391;-92
2024/03/19 19:15:52;;;;;;;48.13;25.05;;;;;;;;;;12915700;22;20437;-91
2024/03/19 19:20:57;;;;;;;50.53;27.15;;;;;;;;;;12921403;22;20384;-93
2024/03/19 19:26:03;;;;;;;55.13;28.27;;;;;;;;;;12923137;22;20450;-93
2024/03/19 19:31:09;;;;;;;46.63;26.60;;;;;;;;;;12913706;22;20418;-93
2024/03/19 19:36:14;;;;;;;45.40;24.92;;;;;;;;;;12913325;22;20709;-90
2024/03/19 19:41:19;;;;;;;47.03;26.23;;;;;;;;;;12927335;22;20399;-89
2024/03/19 19:46:24;;;;;;;50.90;27.23;;;;;;;;;;12912963;22;20438;-92
2024/03/19 19:51:27;;;;;;;49.37;26.77;;;;;;;;;;12916033;22;20388;-92
2024/03/19 19:56:31;;;;;;;43.13;25.20;;;;;;;;;;12915055;22;20384;-91
2024/03/19 20:01:40;;;;;;;49.97;26.13;;;;;;;;;;12915243;22;20407;-92
2024/03/19 20:06:44;;;;;;;54.17;27.67;;;;;;;;;;12916992;22;20450;-92
2024/03/19 20:11:48;;;;;;;47.85;26.58;;;;;;;;;;12931445;23;20796;-88
2024/03/19 20:16:53;;;;;;;46.42;27.35;;;;;;;;;;12921545;23;20458;-92
2024/03/19 20:21:55;;;;;;;48.22;27.52;;;;;;;;;;12912776;22;20384;-92
2024/03/19 20:26:59;;;;;;;49.43;26.80;;;;;;;;;;12915804;22;20376;-91
2024/03/19 20:32:04;;;;;;;49.53;26.45;;;;;;;;;;12914699;22;20737;-92
2024/03/19 20:37:07;;;;;;;51.88;28.33;;;;;;;;;;12915991;22;20384;-93
2024/03/19 20:42:11;;;;;;;49.03;27.67;;;;;;;;;;12914036;22;20384;-92
2024/03/19 20:47:18;;;;;;;48.60;27.83;;;;;;;;;;12913598;22;20376;-90
2024/03/19 20:52:21;;;;;;;49.92;28.08;;;;;;;;;;12913570;22;20388;-93
2024/03/19 20:57:25;;;;;;;56.08;29.90;;;;;;;;;;12911041;22;20666;-90
2024/03/19 21:02:30;;;;;;;56.33;30.15;;;;;;;;;;12912577;22;20380;-89
2024/03/19 21:07:35;;;;;;;57.67;31.55;;;;;;;;;;12909756;22;20432;-92
2024/03/19 21:12:40;;;;;;;53.92;30.75;;;;;;;;;;12955637;22;20375;-92
2024/03/19 21:17:46;;;;;;;61.97;32.27;;;;;;;;;;12977680;22;20417;-92
2024/03/19 21:22:50;;;;;;;60.27;32.63;;;;;;;;;;12982029;22;20367;-91
2024/03/19 21:27:52;;;;;;;59.50;33.30;;;;;;;;;;12973938;22;20383;-91
2024/03/19 21:32:58;;;;;;;57.00;32.42;;;;;;;;;;12974292;22;21061;-90
2024/03/19 21:38:01;;;;;;;58.13;30.75;;;;;;;;;;12975421;22;20836;-91
2024/03/19 21:43:04;;;;;;;55.45;30.73;;;;;;;;;;12975422;22;20404;-91
2024/03/19 21:48:08;;;;;;;49.67;28.88;;;;;;;;;;12974211;22;20382;-90
2024/03/19 21:53:12;;;;;;;51.85;28.67;;;;;;;;;;12973439;22;20391;-90
2024/03/19 21:58:16;;;;;;;53.28;29.60;;;;;;;;;;12971850;22;20383;-91
2024/03/19 22:03:21;;;;;;;53.67;29.80;;;;;;;;;;12973673;22;20963;-89
2024/03/19 22:08:28;;;;;;;50.53;29.25;;;;;;;;;;12976317;22;20425;-91
2024/03/19 22:13:30;;;;;;;54.53;29.95;;;;;;;;;;12970799;22;20963;-89
2024/03/19 22:18:35;;;;;;;55.47;30.05;;;;;;;;;;12975333;22;20362;-90
2024/03/19 22:23:38;;;;;;;59.50;32.78;;;;;;;;;;12977550;22;20702;-90
2024/03/19 22:28:42;;;;;;;58.78;32.30;;;;;;;;;;12977649;22;20742;-91
2024/03/19 22:33:47;;;;;;;60.05;32.63;;;;;;;;;;12979194;22;20386;-91
2024/03/19 22:38:50;;;;;;;59.50;32.08;;;;;;;;;;12981300;22;20366;-90
2024/03/19 22:43:53;;;;;;;55.30;32.33;;;;;;;;;;13011829;22;20408;-91
2024/03/19 22:48:57;;;;;;;59.58;32.47;;;;;;;;;;12989802;22;20424;-92
2024/03/19 22:54:01;;;;;;;59.47;31.40;;;;;;;;;;12985808;22;20386;-92
2024/03/19 22:59:07;;;;;;;57.38;32.13;;;;;;;;;;13009006;22;20423;-91
2024/03/19 23:04:10;;;;;;;58.42;32.05;;;;;;;;;;12986746;22;20428;-91
2024/03/19 23:09:13;;;;;;;61.17;30.90;;;;;;;;;;12989038;22;20374;-90
2024/03/19 23:14:15;;;;;;;58.20;32.00;;;;;;;;;;12987629;22;20405;-92
2024/03/19 23:19:19;;;;;;;59.83;33.20;;;;;;;;;;13008949;22;20834;-93
2024/03/19 23:24:21;;;;;;;64.22;33.65;;;;;;;;;;12986996;22;20366;-93
2024/03/19 23:29:24;;;;;;;65.25;33.42;;;;;;;;;;12988119;22;20367;-92
2024/03/19 23:34:27;;;;;;;65.05;33.63;;;;;;;;;;12986898;22;20456;-92
2024/03/19 23:39:29;;;;;;;64.85;33.72;;;;;;;;;;12986269;22;20371;-89
2024/03/19 23:44:31;;;;;;;60.90;33.55;;;;;;;;;;12986189;22;20912;-91
2024/03/19 23:49:35;;;;;;;63.17;33.70;;;;;;;;;;12985969;22;20904;-91
2024/03/19 23:54:37;;;;;;;67.07;33.65;;;;;;;;;;12984682;22;20924;-90
2024/03/19 23:59:41;;;;;;;67.17;35.00;;;;;;;;;;12986584;22;20431;-91
